Time;durP1;ratioP1;P1;durP2;ratioP2;P2;SDS_P1;SDS_P2;PMS_P1;PMS_P2;Temp;Humidity;BMP_temperature;BMP_pressure;BME280_temperature;BME280_humidity;BME280_pressure;Samples;Min_cycle;Max_cycle;Signal;HPM_P1;HPM_P2
2023/05/19 00:01:12;;;;;;;10.25;3.90;;;9.00;99.90;;;;;;5052618;28;20090;-69
2023/05/19 00:03:51;;;;;;;7.72;3.45;;;8.90;99.90;;;;;;5052833;28;20049;-69
2023/05/19 00:06:22;;;;;;;8.88;3.28;;;8.90;99.90;;;;;;5051740;28;20048;-68
2023/05/19 00:08:49;;;;;;;9.27;3.58;;;8.90;99.90;;;;;;5033912;28;20398;-69
2023/05/19 00:11:15;;;;;;;9.77;4.13;;;8.90;99.90;;;;;;5049898;28;20180;-69
2023/05/19 00:13:41;;;;;;;7.40;3.15;;;8.90;99.90;;;;;;5061124;28;20120;-69
2023/05/19 00:16:07;;;;;;;7.13;3.10;;;8.90;99.90;;;;;;5034099;28;20051;-68
2023/05/19 00:18:33;;;;;;;8.20;3.35;;;8.90;99.90;;;;;;5049607;28;20048;-69
2023/05/19 00:20:59;;;;;;;9.68;3.42;;;8.80;99.90;;;;;;5052754;28;20512;-69
2023/05/19 00:23:24;;;;;;;8.73;3.67;;;8.80;99.90;;;;;;5045500;28;20045;-68
2023/05/19 00:25:51;;;;;;;8.75;3.65;;;8.80;99.90;;;;;;5048193;28;20140;-68
2023/05/19 00:28:17;;;;;;;9.90;3.47;;;8.80;99.90;;;;;;5053063;28;20491;-69
2023/05/19 00:30:43;;;;;;;7.18;2.90;;;8.70;99.90;;;;;;5052478;28;20067;-69
2023/05/19 00:33:08;;;;;;;8.80;3.50;;;8.70;99.90;;;;;;5047938;28;20464;-69
2023/05/19 00:35:34;;;;;;;11.35;3.63;;;8.60;99.90;;;;;;5049543;28;20041;-69
2023/05/19 00:38:00;;;;;;;14.50;4.40;;;8.60;99.90;;;;;;5032798;28;20046;-68
2023/05/19 00:40:27;;;;;;;11.68;4.10;;;8.50;99.90;;;;;;5032376;28;20036;-68
2023/05/19 00:42:52;;;;;;;7.93;3.67;;;8.40;99.90;;;;;;5031324;28;20159;-68
2023/05/19 00:45:18;;;;;;;8.18;3.60;;;8.40;99.90;;;;;;5032231;28;20049;-68
2023/05/19 00:47:44;;;;;;;8.48;3.47;;;8.40;99.90;;;;;;5031862;28;20111;-69
2023/05/19 00:50:09;;;;;;;9.20;3.88;;;8.30;99.90;;;;;;5031679;28;20040;-69
2023/05/19 00:52:35;;;;;;;10.27;3.70;;;8.30;99.90;;;;;;5016261;28;20049;-69
2023/05/19 00:55:01;;;;;;;8.60;3.65;;;8.30;99.90;;;;;;5015805;28;20056;-68
2023/05/19 00:57:27;;;;;;;9.23;3.92;;;8.20;99.90;;;;;;5037518;28;20051;-68
2023/05/19 00:59:53;;;;;;;10.45;4.15;;;8.20;99.90;;;;;;5058954;28;20052;-69
2023/05/19 01:02:18;;;;;;;11.52;3.95;;;8.20;99.90;;;;;;5034469;28;20042;-69
2023/05/19 01:04:45;;;;;;;9.60;4.00;;;8.20;99.90;;;;;;5035001;28;20064;-69
2023/05/19 01:07:11;;;;;;;10.93;3.72;;;8.20;99.90;;;;;;5046373;28;20684;-68
2023/05/19 01:09:37;;;;;;;9.60;4.05;;;8.20;99.90;;;;;;5015812;28;20133;-68
2023/05/19 01:12:03;;;;;;;10.30;3.75;;;8.20;99.90;;;;;;5029012;28;20124;-69
2023/05/19 01:14:29;;;;;;;10.27;4.07;;;8.30;99.90;;;;;;5051760;28;20043;-68
2023/05/19 01:17:08;;;;;;;7.95;3.58;;;8.30;99.90;;;;;;5050617;28;20151;-69
2023/05/19 01:19:53;;;;;;;10.32;3.67;;;8.30;99.90;;;;;;5033154;28;20482;-68
2023/05/19 01:22:31;;;;;;;11.13;4.40;;;8.30;99.90;;;;;;5050232;28;20077;-68
2023/05/19 01:24:56;;;;;;;8.65;3.72;;;8.30;99.90;;;;;;5032770;28;20088;-69
2023/05/19 01:28:00;;;;;;;8.05;3.95;;;8.20;99.90;;;;;;5030949;28;20482;-69
2023/05/19 01:30:42;;;;;;;13.35;4.03;;;8.20;99.90;;;;;;5014970;28;20049;-69
2023/05/19 01:33:12;;;;;;;10.00;3.25;;;8.20;99.90;;;;;;5015067;28;20490;-68
2023/05/19 01:35:39;;;;;;;8.48;3.47;;;8.20;99.90;;;;;;5031673;28;20046;-68
2023/05/19 01:38:08;;;;;;;8.23;3.50;;;8.20;99.90;;;;;;5032840;28;20041;-68
2023/05/19 01:40:35;;;;;;;9.45;3.88;;;8.20;99.90;;;;;;5016085;28;20514;-69
2023/05/19 01:43:01;;;;;;;10.95;3.42;;;8.10;99.90;;;;;;5051612;28;20049;-68
2023/05/19 01:45:28;;;;;;;9.82;4.32;;;8.10;99.90;;;;;;5050087;28;20056;-69
2023/05/19 01:47:56;;;;;;;8.85;3.58;;;8.00;99.90;;;;;;5036380;28;20123;-69
2023/05/19 01:50:22;;;;;;;7.88;3.80;;;7.90;99.90;;;;;;5050869;28;20045;-69
2023/05/19 01:52:47;;;;;;;7.35;3.50;;;7.80;99.90;;;;;;5032681;28;20121;-69
2023/05/19 01:55:13;;;;;;;8.23;3.15;;;7.80;99.90;;;;;;5032901;28;20045;-69
2023/05/19 01:57:54;;;;;;;7.65;3.50;;;7.70;99.90;;;;;;5038944;28;20036;-69
2023/05/19 02:00:53;;;;;;;10.73;3.67;;;7.70;99.90;;;;;;5053041;28;20045;-69
2023/05/19 02:03:43;;;;;;;9.00;3.75;;;7.60;99.90;;;;;;5033451;28;20045;-69
2023/05/19 02:06:36;;;;;;;9.85;4.15;;;7.60;99.90;;;;;;5049184;28;20432;-69
2023/05/19 02:09:10;;;;;;;8.90;3.63;;;7.60;99.90;;;;;;5050973;28;20067;-69
2023/05/19 02:11:37;;;;;;;6.97;3.53;;;7.50;99.90;;;;;;5046486;28;20127;-69
2023/05/19 02:14:30;;;;;;;13.25;4.13;;;7.50;99.90;;;;;;5029483;28;20498;-70
2023/05/19 02:16:58;;;;;;;10.52;4.00;;;7.60;99.90;;;;;;5053162;28;20126;-69
2023/05/19 02:19:26;;;;;;;10.27;4.07;;;7.50;99.90;;;;;;5050963;28;20037;-69
2023/05/19 02:21:51;;;;;;;9.13;4.25;;;7.60;99.90;;;;;;5052802;28;20045;-69
2023/05/19 02:24:18;;;;;;;12.25;3.88;;;7.50;99.90;;;;;;5054078;28;20043;-69
2023/05/19 02:26:44;;;;;;;11.73;4.15;;;7.50;99.90;;;;;;5045854;28;20037;-69
2023/05/19 02:29:10;;;;;;;11.10;3.90;;;7.50;99.90;;;;;;5037016;28;20041;-69
2023/05/19 02:31:36;;;;;;;10.25;4.18;;;7.50;99.90;;;;;;5051379;28;20037;-69
2023/05/19 02:34:02;;;;;;;9.65;3.60;;;7.50;99.90;;;;;;5044379;28;20032;-69
2023/05/19 02:36:27;;;;;;;10.10;3.72;;;7.50;99.90;;;;;;5047957;28;20091;-68
2023/05/19 02:38:53;;;;;;;12.02;4.00;;;7.50;99.90;;;;;;5052401;28;20040;-69
2023/05/19 02:41:18;;;;;;;11.68;3.47;;;7.60;99.90;;;;;;5053853;28;20441;-68
2023/05/19 02:43:44;;;;;;;10.00;3.63;;;7.50;99.90;;;;;;5052466;28;20037;-69
2023/05/19 02:46:10;;;;;;;8.88;4.10;;;7.60;99.90;;;;;;5035001;28;20041;-69
2023/05/19 02:48:35;;;;;;;9.75;3.40;;;7.60;99.90;;;;;;5036250;28;20040;-69
2023/05/19 02:51:01;;;;;;;7.10;2.63;;;7.60;99.90;;;;;;5039700;28;20097;-69
2023/05/19 02:53:26;;;;;;;7.35;2.22;;;7.70;99.90;;;;;;5032860;28;20049;-69
2023/05/19 02:55:52;;;;;;;6.20;2.60;;;7.70;99.90;;;;;;5040130;28;20037;-69
2023/05/19 02:58:19;;;;;;;6.65;2.47;;;7.70;99.90;;;;;;5035699;28;20045;-70
2023/05/19 03:00:44;;;;;;;6.18;2.15;;;7.80;99.90;;;;;;5035918;28;20070;-69
2023/05/19 03:03:10;;;;;;;5.32;2.28;;;7.70;99.90;;;;;;5019579;28;20462;-69
2023/05/19 03:05:36;;;;;;;6.43;2.58;;;7.70;99.90;;;;;;5038231;28;20037;-69
2023/05/19 03:08:01;;;;;;;8.45;2.88;;;7.60;99.90;;;;;;5052546;28;20029;-69
2023/05/19 03:10:27;;;;;;;6.63;2.70;;;7.60;99.90;;;;;;5053305;28;20044;-69
2023/05/19 03:12:52;;;;;;;6.13;2.47;;;7.50;99.90;;;;;;5053986;28;20045;-69
2023/05/19 03:15:18;;;;;;;5.72;2.40;;;7.50;99.90;;;;;;5054766;28;20041;-69
2023/05/19 03:17:44;;;;;;;2.58;1.60;;;7.60;99.90;;;;;;5053201;28;20063;-69
2023/05/19 03:20:09;;;;;;;4.50;1.70;;;7.70;99.90;;;;;;5056655;28;20037;-68
2023/05/19 03:22:35;;;;;;;5.43;2.20;;;7.60;99.90;;;;;;5032673;28;20048;-69
2023/05/19 03:25:02;;;;;;;10.27;2.78;;;7.60;99.90;;;;;;5048535;28;20033;-68
2023/05/19 03:27:28;;;;;;;7.65;3.10;;;7.50;99.90;;;;;;5038237;28;20395;-69
2023/05/19 03:29:54;;;;;;;9.20;3.00;;;7.40;99.90;;;;;;5051316;28;20097;-69
2023/05/19 03:32:19;;;;;;;7.90;3.22;;;7.30;99.90;;;;;;5046861;28;20038;-68
2023/05/19 03:34:45;;;;;;;7.90;2.95;;;7.20;99.90;;;;;;5048823;28;20075;-68
2023/05/19 03:37:11;;;;;;;9.20;3.22;;;7.30;99.90;;;;;;5032106;28;20029;-69
2023/05/19 03:39:37;;;;;;;9.57;3.25;;;7.30;99.90;;;;;;5040011;28;20044;-69
2023/05/19 03:42:03;;;;;;;7.82;3.10;;;7.40;99.90;;;;;;5052390;28;20400;-69
2023/05/19 03:44:28;;;;;;;8.82;3.50;;;7.30;99.90;;;;;;5038962;28;20041;-69
2023/05/19 03:46:54;;;;;;;9.40;3.55;;;7.30;99.90;;;;;;5047979;28;20041;-68
2023/05/19 03:49:20;;;;;;;10.43;3.97;;;7.20;99.90;;;;;;5046791;28;20034;-68
2023/05/19 03:51:45;;;;;;;9.77;3.22;;;7.20;99.90;;;;;;5049909;28;20056;-68
2023/05/19 03:54:11;;;;;;;6.93;3.08;;;7.20;99.90;;;;;;5048162;28;20038;-68
2023/05/19 03:56:38;;;;;;;6.97;3.08;;;7.30;99.90;;;;;;5043289;28;20390;-68
2023/05/19 03:59:05;;;;;;;8.32;3.38;;;7.30;99.90;;;;;;5040993;28;20486;-68
2023/05/19 04:01:31;;;;;;;11.25;4.25;;;7.30;99.90;;;;;;5050624;28;20049;-69
2023/05/19 04:03:57;;;;;;;9.68;3.20;;;7.30;99.90;;;;;;5053487;28;20045;-69
2023/05/19 04:06:23;;;;;;;7.38;3.30;;;7.30;99.90;;;;;;5050451;28;20095;-69
2023/05/19 04:08:48;;;;;;;11.40;4.05;;;7.30;99.90;;;;;;5069920;28;20040;-69
2023/05/19 04:11:14;;;;;;;8.88;3.60;;;7.30;99.90;;;;;;5058941;28;20125;-69
2023/05/19 04:13:40;;;;;;;10.73;3.95;;;7.30;99.90;;;;;;5047755;28;20041;-69
2023/05/19 04:16:06;;;;;;;10.52;4.18;;;7.40;99.90;;;;;;5052969;28;20041;-69
2023/05/19 04:18:31;;;;;;;10.13;4.03;;;7.40;99.90;;;;;;5069747;28;20044;-69
2023/05/19 04:20:57;;;;;;;8.13;3.78;;;7.40;99.90;;;;;;5045553;28;20386;-69
2023/05/19 04:23:23;;;;;;;7.55;2.50;;;7.40;99.90;;;;;;5069653;28;20040;-68
2023/05/19 04:25:48;;;;;;;5.05;1.70;;;7.50;99.90;;;;;;5051449;28;20095;-68
2023/05/19 04:28:14;;;;;;;7.65;2.35;;;7.60;99.90;;;;;;5052622;28;20037;-69
2023/05/19 04:30:41;;;;;;;8.57;4.30;;;7.60;99.90;;;;;;5053159;28;20037;-68
2023/05/19 04:33:08;;;;;;;8.98;4.07;;;7.60;99.90;;;;;;5035021;28;20125;-69
2023/05/19 04:35:33;;;;;;;7.82;3.28;;;7.60;99.90;;;;;;5045542;28;20041;-69
2023/05/19 04:38:00;;;;;;;7.88;2.80;;;7.70;99.90;;;;;;5069091;28;20405;-69
2023/05/19 04:40:26;;;;;;;8.35;3.63;;;7.80;99.90;;;;;;5035075;28;20053;-69
2023/05/19 04:42:52;;;;;;;8.38;3.15;;;7.80;99.90;;;;;;5067889;28;20575;-69
2023/05/19 04:45:18;;;;;;;6.82;3.42;;;7.80;99.90;;;;;;5069125;28;20041;-69
2023/05/19 04:47:46;;;;;;;11.45;4.65;;;7.80;99.90;;;;;;5051608;28;20500;-69
2023/05/19 04:50:13;;;;;;;11.05;5.50;;;7.90;99.90;;;;;;5044489;28;20095;-69
2023/05/19 04:52:40;;;;;;;12.18;5.43;;;7.90;99.90;;;;;;5044425;28;20497;-69
2023/05/19 04:55:06;;;;;;;14.10;5.80;;;8.00;99.90;;;;;;5050993;28;20091;-69
2023/05/19 04:57:32;;;;;;;12.73;5.45;;;8.00;99.90;;;;;;5067786;28;20057;-69
2023/05/19 04:59:59;;;;;;;12.45;4.88;;;8.10;99.90;;;;;;5046551;28;20379;-69
2023/05/19 05:02:27;;;;;;;12.35;5.80;;;8.20;99.90;;;;;;5047480;28;20083;-69
2023/05/19 05:04:55;;;;;;;14.38;5.63;;;8.30;99.90;;;;;;5044831;28;20045;-69
2023/05/19 05:07:21;;;;;;;13.80;6.22;;;8.30;99.90;;;;;;5031083;28;20047;-69
2023/05/19 05:09:47;;;;;;;15.45;5.97;;;8.40;99.90;;;;;;5047573;28;20120;-69
2023/05/19 05:12:14;;;;;;;13.82;5.75;;;8.40;99.90;;;;;;5040674;28;20120;-69
2023/05/19 05:14:40;;;;;;;14.00;6.13;;;8.50;99.90;;;;;;5033685;28;20041;-69
2023/05/19 05:17:06;;;;;;;13.80;6.13;;;8.60;99.90;;;;;;5044987;28;20076;-70
2023/05/19 05:19:32;;;;;;;14.82;6.28;;;8.70;99.90;;;;;;5051732;28;20045;-70
2023/05/19 05:21:59;;;;;;;15.55;5.97;;;8.70;99.90;;;;;;5044586;28;20063;-70
2023/05/19 05:24:25;;;;;;;12.45;5.85;;;8.80;99.90;;;;;;5049321;28;20040;-71
2023/05/19 05:26:51;;;;;;;16.55;6.45;;;8.90;99.90;;;;;;5046039;28;20037;-70
2023/05/19 05:29:16;;;;;;;14.65;6.13;;;8.90;99.90;;;;;;5026601;28;20090;-70
2023/05/19 05:31:42;;;;;;;14.65;6.65;;;9.00;99.90;;;;;;5043082;28;20052;-70
2023/05/19 05:34:08;;;;;;;14.27;6.22;;;9.10;99.90;;;;;;5058852;28;20084;-71
2023/05/19 05:36:34;;;;;;;16.17;6.20;;;9.20;99.90;;;;;;5052137;28;20512;-70
2023/05/19 05:39:01;;;;;;;13.40;6.45;;;9.30;99.90;;;;;;5045031;28;20053;-70
2023/05/19 05:41:28;;;;;;;14.90;6.30;;;9.30;99.90;;;;;;5051374;28;20045;-70
2023/05/19 05:43:54;;;;;;;15.70;6.43;;;9.40;99.90;;;;;;5051435;28;20041;-71
2023/05/19 05:46:19;;;;;;;13.52;6.80;;;9.40;99.90;;;;;;5054574;28;20067;-71
2023/05/19 05:48:48;;;;;;;11.73;6.25;;;9.50;99.90;;;;;;5038725;28;20047;-70
2023/05/19 05:51:14;;;;;;;11.35;6.15;;;9.60;99.90;;;;;;5042361;28;20046;-70
2023/05/19 05:53:42;;;;;;;13.90;6.70;;;9.70;99.90;;;;;;5050322;28;20052;-70
2023/05/19 05:56:09;;;;;;;16.00;6.32;;;9.80;99.90;;;;;;5063894;28;20090;-70
2023/05/19 05:58:36;;;;;;;13.85;5.80;;;9.90;99.90;;;;;;5053749;28;20036;-70
2023/05/19 06:01:03;;;;;;;13.20;6.05;;;9.90;99.90;;;;;;5038199;28;20045;-70
2023/05/19 06:03:30;;;;;;;11.70;6.05;;;10.10;99.90;;;;;;5049316;28;20034;-71
2023/05/19 06:05:56;;;;;;;13.90;6.53;;;10.10;99.90;;;;;;5030077;28;20038;-70
2023/05/19 06:08:22;;;;;;;13.43;6.47;;;10.20;99.90;;;;;;5027707;28;20045;-70
2023/05/19 06:10:47;;;;;;;12.73;5.97;;;10.30;99.90;;;;;;5041543;28;20116;-70
2023/05/19 06:13:16;;;;;;;15.80;6.50;;;10.40;99.90;;;;;;5053544;28;20029;-70
2023/05/19 06:15:42;;;;;;;10.80;6.30;;;10.50;99.90;;;;;;5044546;28;20409;-70
2023/05/19 06:18:07;;;;;;;13.57;6.30;;;10.60;99.90;;;;;;5048109;28;20041;-71
2023/05/19 06:20:33;;;;;;;15.18;6.07;;;10.70;99.90;;;;;;5036909;28;20041;-71
2023/05/19 06:23:00;;;;;;;13.70;6.53;;;10.90;99.90;;;;;;5044162;28;20037;-70
2023/05/19 06:25:25;;;;;;;13.02;6.20;;;11.00;99.90;;;;;;5047554;28;20137;-71
2023/05/19 06:27:51;;;;;;;13.63;6.25;;;11.10;99.90;;;;;;5053435;28;20400;-71
2023/05/19 06:30:16;;;;;;;11.05;5.75;;;11.20;99.90;;;;;;5054988;28;20047;-71
2023/05/19 06:32:42;;;;;;;11.57;6.00;;;11.30;99.90;;;;;;5035371;28;20493;-70
2023/05/19 06:35:08;;;;;;;12.35;5.88;;;11.50;99.90;;;;;;5056062;28;20047;-71
2023/05/19 06:37:33;;;;;;;11.15;5.13;;;11.50;99.90;;;;;;5070345;28;20402;-71
2023/05/19 06:39:59;;;;;;;12.93;5.38;;;11.70;99.90;;;;;;5053580;28;20102;-71
2023/05/19 06:42:24;;;;;;;13.15;5.10;;;11.80;99.90;;;;;;5054098;28;20501;-71
2023/05/19 06:44:51;;;;;;;12.95;4.90;;;12.00;99.90;;;;;;5053413;28;20037;-71
2023/05/19 06:47:17;;;;;;;10.57;5.13;;;12.00;99.90;;;;;;5054689;28;20037;-72
2023/05/19 06:49:49;;;;;;;9.32;4.50;;;12.20;99.90;;;;;;5048044;28;20033;-71
2023/05/19 06:52:15;;;;;;;11.57;4.38;;;12.20;99.90;;;;;;5055801;28;20064;-71
2023/05/19 06:54:41;;;;;;;13.50;4.30;;;12.40;99.90;;;;;;5055568;28;20454;-71
2023/05/19 06:57:06;;;;;;;11.30;4.05;;;12.50;99.90;;;;;;5055771;28;20087;-71
2023/05/19 06:59:33;;;;;;;10.80;4.40;;;12.60;99.90;;;;;;5053278;28;20127;-71
2023/05/19 07:02:01;;;;;;;9.35;4.20;;;12.60;99.90;;;;;;5053392;28;20133;-71
2023/05/19 07:04:26;;;;;;;10.45;3.90;;;12.80;99.90;;;;;;5070963;28;20049;-71
2023/05/19 07:06:52;;;;;;;9.57;4.03;;;12.90;99.90;;;;;;5062794;28;20036;-71
2023/05/19 07:09:17;;;;;;;11.70;3.90;;;13.00;99.90;;;;;;5033909;28;20490;-72
2023/05/19 07:11:43;;;;;;;11.88;3.53;;;13.10;99.90;;;;;;5070825;28;20063;-71
2023/05/19 07:14:09;;;;;;;9.85;3.78;;;13.10;99.90;;;;;;5054144;28;20139;-71
2023/05/19 07:16:34;;;;;;;10.88;3.58;;;13.20;99.90;;;;;;5069617;28;20045;-71
2023/05/19 07:19:01;;;;;;;9.80;3.30;;;13.30;99.90;;;;;;5053916;28;20045;-71
2023/05/19 07:21:26;;;;;;;9.60;3.65;;;13.40;99.90;;;;;;5051510;28;20051;-71
2023/05/19 07:23:52;;;;;;;12.27;3.17;;;13.50;99.90;;;;;;5045130;28;20045;-71
2023/05/19 07:26:18;;;;;;;10.68;3.90;;;13.60;99.90;;;;;;5033952;28;20125;-71
2023/05/19 07:28:43;;;;;;;9.75;3.47;;;13.50;99.90;;;;;;5053552;28;20378;-71
2023/05/19 07:31:09;;;;;;;9.40;3.38;;;13.60;99.90;;;;;;5036561;28;20124;-71
2023/05/19 07:33:34;;;;;;;12.23;3.72;;;13.70;99.90;;;;;;5053911;28;20037;-71
2023/05/19 07:36:00;;;;;;;11.38;3.58;;;13.70;99.90;;;;;;5052712;28;20094;-71
2023/05/19 07:38:27;;;;;;;12.30;5.10;;;13.70;99.90;;;;;;5070240;28;20063;-71
2023/05/19 07:40:53;;;;;;;10.55;3.15;;;13.80;99.90;;;;;;5069239;28;20516;-71
2023/05/19 07:43:18;;;;;;;11.98;3.60;;;13.80;99.90;;;;;;5052170;28;20049;-71
2023/05/19 07:45:44;;;;;;;10.82;3.40;;;13.90;99.90;;;;;;5070056;28;20048;-71
2023/05/19 07:48:09;;;;;;;8.52;3.10;;;13.90;99.90;;;;;;5069022;28;20041;-72
2023/05/19 07:50:35;;;;;;;9.73;3.20;;;13.90;99.90;;;;;;5054858;28;20080;-72
2023/05/19 07:53:01;;;;;;;10.75;3.03;;;14.10;99.90;;;;;;5049145;28;20136;-72
2023/05/19 07:55:27;;;;;;;8.38;2.85;;;14.10;99.90;;;;;;5050040;28;20072;-72
2023/05/19 07:57:52;;;;;;;7.25;3.08;;;14.20;99.90;;;;;;5049731;28;20057;-72
2023/05/19 08:00:18;;;;;;;8.43;3.60;;;14.30;99.90;;;;;;5035132;28;20042;-71
2023/05/19 08:02:44;;;;;;;8.38;2.78;;;14.30;99.90;;;;;;5033994;28;20036;-70
2023/05/19 08:05:10;;;;;;;10.10;2.90;;;14.40;99.90;;;;;;5046092;28;20497;-70
2023/05/19 08:07:36;;;;;;;7.07;2.53;;;14.40;99.90;;;;;;5069765;28;20041;-70
2023/05/19 08:10:02;;;;;;;9.73;2.53;;;14.50;99.90;;;;;;5058720;28;20048;-71
2023/05/19 08:12:28;;;;;;;11.95;3.53;;;14.60;99.90;;;;;;5036119;28;20428;-71
2023/05/19 08:14:53;;;;;;;8.73;2.47;;;14.60;99.90;;;;;;5018410;28;20045;-71
2023/05/19 08:17:19;;;;;;;12.20;3.58;;;14.80;99.90;;;;;;5052815;28;20378;-75
2023/05/19 08:19:44;;;;;;;9.30;2.33;;;14.80;99.90;;;;;;5052212;28;20045;-76
2023/05/19 08:22:10;;;;;;;8.40;2.08;;;14.90;99.90;;;;;;5051838;28;20040;-70
2023/05/19 08:24:36;;;;;;;5.90;1.88;;;15.10;99.90;;;;;;5054077;28;20115;-70
2023/05/19 08:27:03;;;;;;;6.75;2.28;;;15.20;99.90;;;;;;5035386;28;20037;-70
2023/05/19 08:29:29;;;;;;;9.23;2.30;;;15.30;99.90;;;;;;5057490;28;20405;-71
2023/05/19 08:31:57;;;;;;;6.47;2.03;;;15.50;99.90;;;;;;5054239;28;20041;-71
2023/05/19 08:34:22;;;;;;;7.78;1.90;;;15.50;99.90;;;;;;5054058;28;20041;-71
2023/05/19 08:36:48;;;;;;;9.02;2.20;;;15.60;99.90;;;;;;5052130;28;20037;-70
2023/05/19 08:39:15;;;;;;;8.98;2.20;;;15.60;99.90;;;;;;5051638;28;20045;-71
2023/05/19 08:41:41;;;;;;;8.80;2.10;;;15.70;99.90;;;;;;5069131;28;20094;-71
2023/05/19 08:44:06;;;;;;;8.23;2.22;;;15.90;99.90;;;;;;5068195;28;20037;-70
2023/05/19 08:46:32;;;;;;;6.50;2.08;;;15.90;99.90;;;;;;5030525;28;20041;-70
2023/05/19 08:49:09;;;;;;;6.05;2.20;;;15.90;99.90;;;;;;5032336;28;20382;-71
2023/05/19 08:51:47;;;;;;;8.25;2.10;;;15.90;97.50;;;;;;5020397;28;20501;-71
2023/05/19 08:54:16;;;;;;;9.15;2.40;;;16.00;97.00;;;;;;5048683;28;20053;-70
2023/05/19 08:56:44;;;;;;;6.80;2.05;;;16.00;99.20;;;;;;5033892;28;20052;-71
2023/05/19 08:59:12;;;;;;;7.30;2.38;;;16.10;96.70;;;;;;5032414;28;20049;-70
2023/05/19 09:01:38;;;;;;;9.32;2.45;;;16.20;99.90;;;;;;5040126;28;20041;-71
2023/05/19 09:04:05;;;;;;;8.95;2.47;;;16.30;99.90;;;;;;5052070;28;20040;-71
2023/05/19 09:06:31;;;;;;;6.20;2.55;;;16.30;99.90;;;;;;5049977;28;20049;-71
2023/05/19 09:08:57;;;;;;;7.82;2.85;;;16.20;95.30;;;;;;5045692;28;20049;-71
2023/05/19 09:11:22;;;;;;;6.10;2.30;;;16.20;97.00;;;;;;5031234;28;20045;-70
2023/05/19 09:13:48;;;;;;;9.57;2.53;;;16.20;97.20;;;;;;5031993;28;20041;-71
2023/05/19 09:16:15;;;;;;;7.55;2.00;;;16.30;94.00;;;;;;5018994;28;20509;-71
2023/05/19 09:18:55;;;;;;;9.10;2.30;;;16.40;98.50;;;;;;5052138;28;20439;-70
2023/05/19 09:21:31;;;;;;;6.90;1.85;;;16.40;92.30;;;;;;5053136;28;20044;-71
2023/05/19 09:23:58;;;;;;;6.93;2.22;;;16.60;96.60;;;;;;5051995;28;20508;-71
2023/05/19 09:26:23;;;;;;;5.57;1.95;;;16.70;99.90;;;;;;5048669;28;20099;-71
2023/05/19 09:28:49;;;;;;;11.18;2.40;;;16.80;99.10;;;;;;5049049;28;20128;-71
2023/05/19 09:31:15;;;;;;;9.15;2.40;;;16.90;96.10;;;;;;5064103;28;20498;-71
2023/05/19 09:33:41;;;;;;;7.80;2.33;;;16.80;91.50;;;;;;5046674;28;20039;-71
2023/05/19 09:36:09;;;;;;;4.93;1.67;;;16.80;96.90;;;;;;5036979;28;20049;-71
2023/05/19 09:38:36;;;;;;;7.28;2.38;;;17.00;98.30;;;;;;5030967;28;20045;-71
2023/05/19 09:41:04;;;;;;;5.45;2.00;;;17.10;93.50;;;;;;5040181;28;20041;-71
2023/05/19 09:43:32;;;;;;;9.20;2.35;;;17.20;95.60;;;;;;5050220;28;20091;-71
2023/05/19 09:46:10;;;;;;;7.72;2.25;;;17.30;93.90;;;;;;5032986;28;20045;-71
2023/05/19 09:48:36;;;;;;;6.15;2.00;;;17.20;78.10;;;;;;5047203;28;20367;-71
2023/05/19 09:51:03;;;;;;;7.78;2.33;;;17.30;93.70;;;;;;5034674;28;20397;-71
2023/05/19 09:53:32;;;;;;;6.43;1.80;;;17.20;93.40;;;;;;5047156;28;20053;-71
2023/05/19 09:56:00;;;;;;;6.35;2.40;;;17.10;92.80;;;;;;5040120;28;20048;-72
2023/05/19 09:58:30;;;;;;;9.52;2.10;;;17.30;93.90;;;;;;5039671;28;20056;-71
2023/05/19 10:00:58;;;;;;;6.20;1.90;;;17.40;93.50;;;;;;5051917;28;20508;-71
2023/05/19 10:03:25;;;;;;;10.00;2.42;;;17.20;87.30;;;;;;5037991;28;20083;-70
2023/05/19 10:05:52;;;;;;;6.47;2.10;;;17.10;82.80;;;;;;5038944;28;20136;-71
2023/05/19 10:08:18;;;;;;;7.32;1.73;;;17.10;91.50;;;;;;5048835;28;20037;-70
2023/05/19 10:10:46;;;;;;;7.53;2.10;;;17.20;93.50;;;;;;5055253;28;20104;-70
2023/05/19 10:13:12;;;;;;;7.93;2.00;;;17.40;93.10;;;;;;5060710;28;20073;-71
2023/05/19 10:15:41;;;;;;;7.97;2.67;;;17.40;94.40;;;;;;5031447;28;20103;-70
2023/05/19 10:18:09;;;;;;;9.75;2.60;;;17.40;93.90;;;;;;5045451;28;20048;-71
2023/05/19 10:20:36;;;;;;;8.50;2.17;;;17.60;93.10;;;;;;5040944;28;20041;-71
2023/05/19 10:23:02;;;;;;;5.40;1.85;;;17.70;94.10;;;;;;5057371;28;20041;-71
2023/05/19 10:25:30;;;;;;;6.60;2.10;;;17.80;95.20;;;;;;5051131;28;20088;-71
2023/05/19 10:28:13;;;;;;;7.25;2.30;;;17.90;94.90;;;;;;5064000;28;20125;-70
2023/05/19 10:30:42;;;;;;;7.15;1.83;;;17.80;90.90;;;;;;5065045;28;20392;-70
2023/05/19 10:33:11;;;;;;;9.05;2.38;;;17.80;95.00;;;;;;5054732;28;20041;-71
2023/05/19 10:35:46;;;;;;;8.82;2.22;;;18.00;91.80;;;;;;5054810;28;20692;-80
2023/05/19 10:38:18;;;;;;;8.23;2.45;;;17.90;93.90;;;;;;5050503;28;20048;-82
2023/05/19 10:41:05;;;;;;;7.13;2.33;;;18.00;92.10;;;;;;5056782;28;20120;-81
2023/05/19 10:43:54;;;;;;;8.38;2.65;;;18.00;91.50;;;;;;5035033;28;20445;-81
2023/05/19 10:46:28;;;;;;;7.70;2.60;;;17.90;90.90;;;;;;5022518;28;20397;-81
2023/05/19 10:48:54;;;;;;;8.55;3.08;;;18.00;91.30;;;;;;5054402;28;20099;-81
2023/05/19 10:51:20;;;;;;;7.97;2.08;;;17.70;86.30;;;;;;5054226;28;20047;-81
2023/05/19 10:53:46;;;;;;;8.02;2.45;;;17.90;91.10;;;;;;5070790;28;20045;-81
2023/05/19 10:56:31;;;;;;;10.57;2.72;;;17.80;90.60;;;;;;5053291;28;20090;-81
2023/05/19 10:58:57;;;;;;;9.50;2.75;;;17.80;85.70;;;;;;5071199;28;20072;-76
2023/05/19 11:01:32;;;;;;;8.00;2.72;;;17.70;83.90;;;;;;5054346;28;20060;-76
2023/05/19 11:04:10;;;;;;;8.35;2.47;;;17.70;91.60;;;;;;5054333;28;20045;-76
2023/05/19 11:06:37;;;;;;;8.75;2.63;;;17.70;92.20;;;;;;5070013;28;20036;-75
2023/05/19 11:09:18;;;;;;;8.23;3.83;;;17.80;92.60;;;;;;5037630;28;20047;-71
2023/05/19 11:11:48;;;;;;;9.80;2.65;;;18.00;91.30;;;;;;5054099;28;20045;-71
2023/05/19 11:14:22;;;;;;;8.18;2.63;;;17.90;93.20;;;;;;5071026;28;20409;-71
2023/05/19 11:16:55;;;;;;;9.30;3.03;;;18.10;93.40;;;;;;5044837;28;20049;-71
2023/05/19 11:19:25;;;;;;;8.35;2.22;;;18.00;90.90;;;;;;5034312;28;20560;-71
2023/05/19 11:21:54;;;;;;;7.43;2.42;;;17.90;92.70;;;;;;5034095;28;20502;-71
2023/05/19 11:24:41;;;;;;;11.02;2.70;;;18.10;92.90;;;;;;5034258;28;20045;-71
2023/05/19 11:27:37;;;;;;;9.48;2.60;;;18.10;91.50;;;;;;5052486;28;20393;-71
2023/05/19 11:30:13;;;;;;;6.10;2.58;;;17.90;90.40;;;;;;5048213;28;20191;-71
2023/05/19 11:32:41;;;;;;;9.75;2.90;;;17.70;90.10;;;;;;5054993;28;20393;-71
2023/05/19 11:35:08;;;;;;;9.50;2.50;;;17.80;91.90;;;;;;5053284;28;20076;-72
2023/05/19 11:37:34;;;;;;;10.35;3.53;;;17.90;94.20;;;;;;5052834;28;20063;-70
2023/05/19 11:40:01;;;;;;;7.53;2.97;;;18.00;90.60;;;;;;5053624;28;20044;-71
2023/05/19 11:42:27;;;;;;;8.55;2.95;;;17.90;93.50;;;;;;5036730;28;20080;-71
2023/05/19 11:44:55;;;;;;;9.57;3.00;;;17.90;93.10;;;;;;5034218;28;20076;-71
2023/05/19 11:47:21;;;;;;;7.70;3.00;;;17.90;93.30;;;;;;5033587;28;20037;-71
2023/05/19 11:49:47;;;;;;;10.85;3.13;;;17.90;95.50;;;;;;5017103;28;20438;-71
2023/05/19 11:52:13;;;;;;;8.82;2.75;;;17.90;95.80;;;;;;5038057;28;20049;-71
2023/05/19 11:54:40;;;;;;;10.93;3.08;;;18.00;94.50;;;;;;5051617;28;20503;-71
2023/05/19 11:57:10;;;;;;;11.25;3.35;;;17.90;91.00;;;;;;5049974;28;20489;-70
2023/05/19 11:59:39;;;;;;;9.88;3.60;;;17.90;95.10;;;;;;5016791;28;20045;-71
2023/05/19 12:02:26;;;;;;;7.60;3.10;;;18.00;94.60;;;;;;5033341;28;20041;-71
2023/05/19 12:04:52;;;;;;;10.25;3.10;;;18.00;93.90;;;;;;5033457;28;20041;-71
2023/05/19 12:07:21;;;;;;;10.05;2.50;;;18.00;93.60;;;;;;5036647;28;20551;-71
2023/05/19 12:09:48;;;;;;;10.25;3.03;;;17.90;95.10;;;;;;5064754;28;20045;-70
2023/05/19 12:12:15;;;;;;;10.65;3.13;;;17.90;92.40;;;;;;5052832;28;20124;-70
2023/05/19 12:14:42;;;;;;;7.63;2.72;;;17.80;94.10;;;;;;5051733;28;20562;-70
2023/05/19 12:17:18;;;;;;;8.57;2.60;;;17.90;95.50;;;;;;5045546;28;20377;-70
2023/05/19 12:19:48;;;;;;;8.77;3.08;;;17.90;95.60;;;;;;5034153;28;20068;-76
2023/05/19 12:22:15;;;;;;;10.93;3.30;;;17.90;95.70;;;;;;5032868;28;20164;-72
2023/05/19 12:24:42;;;;;;;10.15;3.40;;;18.00;94.20;;;;;;5049408;28;20055;-72
2023/05/19 12:27:16;;;;;;;11.93;3.42;;;17.90;95.30;;;;;;5026787;28;20116;-72
2023/05/19 12:29:42;;;;;;;10.77;3.08;;;17.90;96.70;;;;;;5033452;28;20094;-72
2023/05/19 12:32:08;;;;;;;8.38;2.45;;;18.00;97.50;;;;;;5052597;28;20037;-72
2023/05/19 12:34:36;;;;;;;11.32;3.13;;;18.10;96.20;;;;;;5052710;28;20045;-72
2023/05/19 12:37:03;;;;;;;8.75;2.38;;;18.20;95.70;;;;;;5052835;28;20045;-72
2023/05/19 12:39:28;;;;;;;7.80;2.55;;;18.10;96.20;;;;;;5053752;28;20124;-72
2023/05/19 12:42:03;;;;;;;8.13;2.60;;;18.00;92.50;;;;;;5040762;28;20065;-72
2023/05/19 12:44:30;;;;;;;6.53;2.80;;;18.10;94.00;;;;;;5041881;28;20045;-72
2023/05/19 12:46:59;;;;;;;7.35;2.90;;;18.10;95.80;;;;;;5037091;28;20064;-72
2023/05/19 12:49:24;;;;;;;10.25;2.60;;;18.10;96.30;;;;;;5033220;28;20041;-72
2023/05/19 12:51:53;;;;;;;9.52;2.80;;;18.20;96.40;;;;;;5048722;28;20057;-72